TimeCST,TemperatureF,Dew PointF,Humidity,Sea Level PressureIn,VisibilityMPH,Wind Direction,Wind SpeedMPH,Gust SpeedMPH,PrecipitationIn,Events,Conditions,WindDirDegrees,DateUTC
12:53 AM,28.9,26.1,89,30.17,6.0,Calm,Calm,-,N/A,,Clear,0,2013-01-17 06:53:00
1:53 AM,27.0,25.0,92,30.15,4.0,Calm,Calm,-,N/A,,Clear,0,2013-01-17 07:53:00
2:53 AM,25.0,23.0,92,30.16,3.0,Calm,Calm,-,N/A,,Clear,0,2013-01-17 08:53:00
3:53 AM,26.1,23.0,88,30.16,7.0,NW,4.6,-,N/A,,Scattered Clouds,320,2013-01-17 09:53:00
4:53 AM,27.0,23.0,85,30.12,9.0,North,5.8,-,N/A,,Clear,350,2013-01-17 10:53:00
5:53 AM,27.0,21.9,81,30.17,10.0,Calm,Calm,-,N/A,,Clear,0,2013-01-17 11:53:00
6:53 AM,25.0,21.9,88,30.21,10.0,Calm,Calm,-,N/A,,Clear,0,2013-01-17 12:53:00
7:53 AM,25.0,21.9,88,30.22,7.0,Calm,Calm,-,N/A,,Partly Cloudy,0,2013-01-17 13:53:00
8:53 AM,33.1,27.0,78,30.23,9.0,North,4.6,-,N/A,,Overcast,10,2013-01-17 14:53:00
9:53 AM,37.9,28.0,68,30.25,10.0,North,10.4,-,N/A,,Clear,350,2013-01-17 15:53:00
10:53 AM,42.1,30.0,62,30.25,10.0,North,15.0,-,N/A,,Clear,360,2013-01-17 16:53:00
11:53 AM,45.0,32.0,60,30.22,10.0,North,10.4,-,N/A,,Clear,350,2013-01-17 17:53:00
12:53 PM,46.0,33.1,61,30.21,10.0,NNW,15.0,23.0,N/A,,Clear,340,2013-01-17 18:53:00
1:53 PM,44.1,33.1,65,30.23,9.0,North,18.4,26.5,N/A,,Mostly Cloudy,360,2013-01-17 19:53:00
2:04 PM,44.6,33.8,66,30.23,9.0,NNW,17.3,26.5,N/A,,Overcast,340,2013-01-17 20:04:00
2:53 PM,43.0,34.0,71,30.27,8.0,NNW,13.8,-,N/A,,Overcast,340,2013-01-17 20:53:00
3:20 PM,42.8,33.8,70,30.28,10.0,NNW,15.0,26.5,N/A,,Scattered Clouds,340,2013-01-17 21:20:00
3:53 PM,41.0,30.9,67,30.31,10.0,NNW,13.8,-,N/A,,Scattered Clouds,340,2013-01-17 21:53:00
4:53 PM,37.9,28.0,68,30.35,10.0,NNW,11.5,-,N/A,,Clear,340,2013-01-17 22:53:00
5:53 PM,35.1,27.0,72,30.40,10.0,NNW,4.6,-,N/A,,Clear,330,2013-01-17 23:53:00
6:53 PM,35.1,27.0,72,30.43,10.0,NNW,9.2,-,N/A,,Clear,340,2013-01-18 00:53:00
7:53 PM,34.0,26.1,73,30.45,10.0,North,9.2,-,N/A,,Clear,350,2013-01-18 01:53:00
8:53 PM,32.0,24.1,73,30.49,10.0,North,5.8,-,N/A,,Clear,350,2013-01-18 02:53:00
9:53 PM,30.9,23.0,72,30.48,10.0,North,6.9,-,N/A,,Clear,360,2013-01-18 03:53:00
10:53 PM,30.9,23.0,72,30.49,10.0,North,3.5,-,N/A,,Clear,10,2013-01-18 04:53:00
11:53 PM,28.0,21.9,78,30.51,10.0,North,6.9,-,N/A,,Clear,350,2013-01-18 05:53:00